sensor_id;sensor_type;location;lat;lon;timestamp;P1;durP1;ratioP1;P2;durP2;ratioP2
14276;SDS011;7222;57.346;12.150;2023-02-15T00:01:51;28.43;;;16.10;;
14276;SDS011;7222;57.346;12.150;2023-02-15T00:04:20;27.13;;;17.07;;
14276;SDS011;7222;57.346;12.150;2023-02-15T00:06:48;32.43;;;18.77;;
14276;SDS011;7222;57.346;12.150;2023-02-15T00:09:15;30.83;;;18.07;;
14276;SDS011;7222;57.346;12.150;2023-02-15T00:11:42;28.20;;;17.20;;
14276;SDS011;7222;57.346;12.150;2023-02-15T00:14:15;29.93;;;17.10;;
14276;SDS011;7222;57.346;12.150;2023-02-15T00:16:43;29.43;;;17.57;;
14276;SDS011;7222;57.346;12.150;2023-02-15T00:19:12;30.80;;;17.30;;
14276;SDS011;7222;57.346;12.150;2023-02-15T00:21:41;29.77;;;17.17;;
14276;SDS011;7222;57.346;12.150;2023-02-15T00:24:12;31.10;;;17.20;;
14276;SDS011;7222;57.346;12.150;2023-02-15T00:26:40;27.97;;;16.60;;
14276;SDS011;7222;57.346;12.150;2023-02-15T00:29:09;32.37;;;18.57;;
14276;SDS011;7222;57.346;12.150;2023-02-15T00:31:37;31.33;;;16.87;;
14276;SDS011;7222;57.346;12.150;2023-02-15T00:34:05;33.13;;;17.23;;
14276;SDS011;7222;57.346;12.150;2023-02-15T00:36:35;31.60;;;16.40;;
14276;SDS011;7222;57.346;12.150;2023-02-15T00:39:02;33.37;;;17.40;;
14276;SDS011;7222;57.346;12.150;2023-02-15T00:41:29;33.20;;;18.23;;
14276;SDS011;7222;57.346;12.150;2023-02-15T00:43:56;27.03;;;14.97;;
14276;SDS011;7222;57.346;12.150;2023-02-15T00:46:23;33.63;;;17.40;;
14276;SDS011;7222;57.346;12.150;2023-02-15T00:48:50;30.97;;;16.27;;
14276;SDS011;7222;57.346;12.150;2023-02-15T00:51:18;27.93;;;15.70;;
14276;SDS011;7222;57.346;12.150;2023-02-15T00:53:46;27.40;;;15.30;;
14276;SDS011;7222;57.346;12.150;2023-02-15T00:56:14;31.27;;;16.33;;
14276;SDS011;7222;57.346;12.150;2023-02-15T00:58:41;30.07;;;17.40;;
14276;SDS011;7222;57.346;12.150;2023-02-15T01:01:09;31.00;;;16.47;;
14276;SDS011;7222;57.346;12.150;2023-02-15T01:03:37;33.73;;;18.13;;
14276;SDS011;7222;57.346;12.150;2023-02-15T01:06:06;33.07;;;19.17;;
14276;SDS011;7222;57.346;12.150;2023-02-15T01:08:34;30.37;;;17.50;;
14276;SDS011;7222;57.346;12.150;2023-02-15T01:11:04;33.07;;;18.27;;
14276;SDS011;7222;57.346;12.150;2023-02-15T01:13:32;33.50;;;17.30;;
14276;SDS011;7222;57.346;12.150;2023-02-15T01:15:59;31.07;;;17.27;;
14276;SDS011;7222;57.346;12.150;2023-02-15T01:18:26;36.03;;;19.80;;
14276;SDS011;7222;57.346;12.150;2023-02-15T01:20:53;36.20;;;18.00;;
14276;SDS011;7222;57.346;12.150;2023-02-15T01:23:20;35.73;;;18.10;;
14276;SDS011;7222;57.346;12.150;2023-02-15T01:25:47;34.40;;;19.33;;
14276;SDS011;7222;57.346;12.150;2023-02-15T01:28:16;31.77;;;18.73;;
14276;SDS011;7222;57.346;12.150;2023-02-15T01:30:43;38.50;;;21.20;;
14276;SDS011;7222;57.346;12.150;2023-02-15T01:33:10;36.30;;;19.37;;
14276;SDS011;7222;57.346;12.150;2023-02-15T01:35:42;35.60;;;19.80;;
14276;SDS011;7222;57.346;12.150;2023-02-15T01:38:10;37.83;;;19.93;;
14276;SDS011;7222;57.346;12.150;2023-02-15T01:40:37;31.63;;;16.80;;
14276;SDS011;7222;57.346;12.150;2023-02-15T01:43:07;36.20;;;19.60;;
14276;SDS011;7222;57.346;12.150;2023-02-15T01:45:38;37.27;;;20.90;;
14276;SDS011;7222;57.346;12.150;2023-02-15T01:48:05;33.87;;;18.83;;
14276;SDS011;7222;57.346;12.150;2023-02-15T01:50:40;29.80;;;16.50;;
14276;SDS011;7222;57.346;12.150;2023-02-15T01:53:17;32.43;;;18.17;;
14276;SDS011;7222;57.346;12.150;2023-02-15T01:55:50;33.43;;;19.33;;
14276;SDS011;7222;57.346;12.150;2023-02-15T01:58:20;30.90;;;17.27;;
14276;SDS011;7222;57.346;12.150;2023-02-15T02:00:50;31.23;;;17.20;;
14276;SDS011;7222;57.346;12.150;2023-02-15T02:03:17;29.77;;;17.07;;
14276;SDS011;7222;57.346;12.150;2023-02-15T02:05:53;27.83;;;15.00;;
14276;SDS011;7222;57.346;12.150;2023-02-15T02:08:20;29.03;;;17.87;;
14276;SDS011;7222;57.346;12.150;2023-02-15T02:10:47;29.73;;;18.33;;
14276;SDS011;7222;57.346;12.150;2023-02-15T02:13:14;28.70;;;17.00;;
14276;SDS011;7222;57.346;12.150;2023-02-15T02:15:43;27.20;;;15.53;;
14276;SDS011;7222;57.346;12.150;2023-02-15T02:18:22;26.23;;;14.20;;
14276;SDS011;7222;57.346;12.150;2023-02-15T02:21:07;27.03;;;16.37;;
14276;SDS011;7222;57.346;12.150;2023-02-15T02:24:05;29.00;;;16.50;;
14276;SDS011;7222;57.346;12.150;2023-02-15T02:30:04;29.27;;;15.93;;
14276;SDS011;7222;57.346;12.150;2023-02-15T02:32:55;25.57;;;15.07;;
14276;SDS011;7222;57.346;12.150;2023-02-15T02:35:38;28.10;;;15.97;;
14276;SDS011;7222;57.346;12.150;2023-02-15T02:38:11;29.53;;;16.53;;
14276;SDS011;7222;57.346;12.150;2023-02-15T02:41:01;32.40;;;16.77;;
14276;SDS011;7222;57.346;12.150;2023-02-15T02:43:36;29.53;;;16.33;;
14276;SDS011;7222;57.346;12.150;2023-02-15T02:46:10;29.77;;;16.03;;
14276;SDS011;7222;57.346;12.150;2023-02-15T02:48:45;31.17;;;17.53;;
14276;SDS011;7222;57.346;12.150;2023-02-15T02:51:14;32.43;;;17.43;;
14276;SDS011;7222;57.346;12.150;2023-02-15T02:53:46;32.20;;;17.40;;
14276;SDS011;7222;57.346;12.150;2023-02-15T02:56:18;31.73;;;15.77;;
14276;SDS011;7222;57.346;12.150;2023-02-15T02:58:49;29.80;;;16.37;;
14276;SDS011;7222;57.346;12.150;2023-02-15T03:01:22;31.67;;;16.93;;
14276;SDS011;7222;57.346;12.150;2023-02-15T03:03:55;34.33;;;18.57;;
14276;SDS011;7222;57.346;12.150;2023-02-15T03:06:33;32.90;;;18.07;;
14276;SDS011;7222;57.346;12.150;2023-02-15T03:09:06;30.03;;;17.20;;
14276;SDS011;7222;57.346;12.150;2023-02-15T03:11:39;31.10;;;16.77;;
14276;SDS011;7222;57.346;12.150;2023-02-15T03:14:08;32.23;;;18.93;;
14276;SDS011;7222;57.346;12.150;2023-02-15T03:16:35;30.77;;;17.13;;
14276;SDS011;7222;57.346;12.150;2023-02-15T03:19:06;30.87;;;17.27;;
14276;SDS011;7222;57.346;12.150;2023-02-15T03:21:37;31.70;;;18.10;;
14276;SDS011;7222;57.346;12.150;2023-02-15T03:24:09;33.10;;;20.60;;
14276;SDS011;7222;57.346;12.150;2023-02-15T03:26:39;33.20;;;18.57;;
14276;SDS011;7222;57.346;12.150;2023-02-15T03:29:11;29.47;;;17.77;;
14276;SDS011;7222;57.346;12.150;2023-02-15T03:31:40;31.87;;;17.67;;
14276;SDS011;7222;57.346;12.150;2023-02-15T03:34:12;28.67;;;17.67;;
14276;SDS011;7222;57.346;12.150;2023-02-15T03:36:44;26.90;;;18.07;;
14276;SDS011;7222;57.346;12.150;2023-02-15T03:39:16;28.00;;;17.40;;
14276;SDS011;7222;57.346;12.150;2023-02-15T03:41:48;27.43;;;17.13;;
14276;SDS011;7222;57.346;12.150;2023-02-15T03:44:23;27.20;;;15.50;;
14276;SDS011;7222;57.346;12.150;2023-02-15T03:46:55;27.43;;;15.87;;
14276;SDS011;7222;57.346;12.150;2023-02-15T03:49:28;25.93;;;15.27;;
14276;SDS011;7222;57.346;12.150;2023-02-15T03:51:59;28.30;;;16.20;;
14276;SDS011;7222;57.346;12.150;2023-02-15T03:54:29;25.30;;;15.50;;
14276;SDS011;7222;57.346;12.150;2023-02-15T03:57:15;28.10;;;16.57;;
14276;SDS011;7222;57.346;12.150;2023-02-15T04:00:02;27.73;;;15.47;;
14276;SDS011;7222;57.346;12.150;2023-02-15T04:02:56;27.43;;;15.47;;
14276;SDS011;7222;57.346;12.150;2023-02-15T04:05:49;28.87;;;16.30;;
14276;SDS011;7222;57.346;12.150;2023-02-15T04:08:16;28.10;;;16.87;;
14276;SDS011;7222;57.346;12.150;2023-02-15T04:10:43;28.30;;;14.53;;
14276;SDS011;7222;57.346;12.150;2023-02-15T04:13:18;30.20;;;18.20;;
14276;SDS011;7222;57.346;12.150;2023-02-15T04:15:45;27.97;;;16.70;;
14276;SDS011;7222;57.346;12.150;2023-02-15T04:18:29;31.07;;;18.00;;
14276;SDS011;7222;57.346;12.150;2023-02-15T04:21:16;31.93;;;18.00;;
14276;SDS011;7222;57.346;12.150;2023-02-15T04:24:01;30.57;;;17.80;;
14276;SDS011;7222;57.346;12.150;2023-02-15T04:26:45;31.87;;;18.93;;
14276;SDS011;7222;57.346;12.150;2023-02-15T04:29:13;31.33;;;18.17;;
14276;SDS011;7222;57.346;12.150;2023-02-15T04:31:41;32.03;;;18.73;;
14276;SDS011;7222;57.346;12.150;2023-02-15T04:34:08;33.03;;;17.40;;
14276;SDS011;7222;57.346;12.150;2023-02-15T04:36:37;32.97;;;20.97;;
14276;SDS011;7222;57.346;12.150;2023-02-15T04:39:04;32.63;;;18.93;;
14276;SDS011;7222;57.346;12.150;2023-02-15T04:41:32;33.57;;;20.27;;
14276;SDS011;7222;57.346;12.150;2023-02-15T04:43:59;38.03;;;22.47;;
14276;SDS011;7222;57.346;12.150;2023-02-15T04:46:27;38.37;;;22.20;;
14276;SDS011;7222;57.346;12.150;2023-02-15T04:48:54;36.43;;;18.83;;
14276;SDS011;7222;57.346;12.150;2023-02-15T04:51:21;40.43;;;22.60;;
14276;SDS011;7222;57.346;12.150;2023-02-15T04:53:49;37.03;;;21.87;;
14276;SDS011;7222;57.346;12.150;2023-02-15T04:56:17;39.10;;;20.57;;
14276;SDS011;7222;57.346;12.150;2023-02-15T04:58:44;35.33;;;22.53;;
14276;SDS011;7222;57.346;12.150;2023-02-15T05:01:12;38.40;;;19.20;;
14276;SDS011;7222;57.346;12.150;2023-02-15T05:03:39;38.30;;;22.50;;
14276;SDS011;7222;57.346;12.150;2023-02-15T05:06:06;40.90;;;25.57;;
14276;SDS011;7222;57.346;12.150;2023-02-15T05:08:33;41.13;;;22.90;;
14276;SDS011;7222;57.346;12.150;2023-02-15T05:11:01;41.77;;;24.50;;
14276;SDS011;7222;57.346;12.150;2023-02-15T05:13:28;40.13;;;22.83;;
14276;SDS011;7222;57.346;12.150;2023-02-15T05:15:55;40.43;;;20.33;;
14276;SDS011;7222;57.346;12.150;2023-02-15T05:18:22;43.67;;;25.87;;
14276;SDS011;7222;57.346;12.150;2023-02-15T05:20:49;38.00;;;20.80;;
14276;SDS011;7222;57.346;12.150;2023-02-15T05:23:16;41.97;;;20.03;;
14276;SDS011;7222;57.346;12.150;2023-02-15T05:25:46;38.60;;;19.70;;
14276;SDS011;7222;57.346;12.150;2023-02-15T05:28:32;38.53;;;19.60;;
14276;SDS011;7222;57.346;12.150;2023-02-15T05:31:02;39.20;;;20.53;;
14276;SDS011;7222;57.346;12.150;2023-02-15T05:33:30;39.73;;;19.73;;
14276;SDS011;7222;57.346;12.150;2023-02-15T05:35:57;39.40;;;20.90;;
14276;SDS011;7222;57.346;12.150;2023-02-15T05:38:24;40.17;;;21.93;;
14276;SDS011;7222;57.346;12.150;2023-02-15T05:40:51;46.03;;;23.33;;
14276;SDS011;7222;57.346;12.150;2023-02-15T05:43:18;42.80;;;25.17;;
14276;SDS011;7222;57.346;12.150;2023-02-15T05:45:47;40.63;;;22.43;;
14276;SDS011;7222;57.346;12.150;2023-02-15T05:48:14;39.57;;;21.77;;
14276;SDS011;7222;57.346;12.150;2023-02-15T05:50:41;40.57;;;21.37;;
14276;SDS011;7222;57.346;12.150;2023-02-15T05:53:08;40.10;;;23.23;;
14276;SDS011;7222;57.346;12.150;2023-02-15T05:55:36;37.47;;;22.50;;
14276;SDS011;7222;57.346;12.150;2023-02-15T05:58:04;38.17;;;20.67;;
14276;SDS011;7222;57.346;12.150;2023-02-15T06:00:31;33.97;;;17.03;;
14276;SDS011;7222;57.346;12.150;2023-02-15T06:02:59;37.07;;;18.73;;
14276;SDS011;7222;57.346;12.150;2023-02-15T06:05:26;39.87;;;23.77;;
14276;SDS011;7222;57.346;12.150;2023-02-15T06:07:53;39.60;;;20.00;;
14276;SDS011;7222;57.346;12.150;2023-02-15T06:10:20;34.33;;;17.83;;
14276;SDS011;7222;57.346;12.150;2023-02-15T06:12:47;39.30;;;18.97;;
14276;SDS011;7222;57.346;12.150;2023-02-15T06:15:14;37.83;;;20.53;;
14276;SDS011;7222;57.346;12.150;2023-02-15T06:17:41;42.07;;;22.80;;
14276;SDS011;7222;57.346;12.150;2023-02-15T06:20:10;42.83;;;23.20;;
14276;SDS011;7222;57.346;12.150;2023-02-15T06:22:37;40.50;;;20.73;;
14276;SDS011;7222;57.346;12.150;2023-02-15T06:25:05;40.83;;;22.33;;
14276;SDS011;7222;57.346;12.150;2023-02-15T06:27:34;40.70;;;23.10;;
14276;SDS011;7222;57.346;12.150;2023-02-15T06:30:02;40.67;;;22.10;;
14276;SDS011;7222;57.346;12.150;2023-02-15T06:32:30;40.80;;;25.20;;
14276;SDS011;7222;57.346;12.150;2023-02-15T06:34:57;40.33;;;22.97;;
14276;SDS011;7222;57.346;12.150;2023-02-15T06:37:25;38.83;;;21.20;;
14276;SDS011;7222;57.346;12.150;2023-02-15T06:39:52;44.50;;;25.90;;
14276;SDS011;7222;57.346;12.150;2023-02-15T06:42:20;39.27;;;22.73;;
14276;SDS011;7222;57.346;12.150;2023-02-15T06:44:47;40.83;;;19.90;;
14276;SDS011;7222;57.346;12.150;2023-02-15T06:47:14;38.67;;;20.57;;
14276;SDS011;7222;57.346;12.150;2023-02-15T06:49:41;41.90;;;23.43;;
14276;SDS011;7222;57.346;12.150;2023-02-15T06:52:08;38.97;;;21.67;;
14276;SDS011;7222;57.346;12.150;2023-02-15T06:54:37;40.10;;;21.37;;
14276;SDS011;7222;57.346;12.150;2023-02-15T06:57:04;39.33;;;22.10;;
14276;SDS011;7222;57.346;12.150;2023-02-15T06:59:30;37.43;;;23.07;;
14276;SDS011;7222;57.346;12.150;2023-02-15T07:01:57;42.83;;;21.07;;
14276;SDS011;7222;57.346;12.150;2023-02-15T07:04:24;40.07;;;21.80;;
14276;SDS011;7222;57.346;12.150;2023-02-15T07:06:53;38.20;;;20.97;;
14276;SDS011;7222;57.346;12.150;2023-02-15T07:09:20;37.70;;;20.67;;
14276;SDS011;7222;57.346;12.150;2023-02-15T07:11:49;33.03;;;18.60;;
14276;SDS011;7222;57.346;12.150;2023-02-15T07:14:30;40.37;;;20.33;;
14276;SDS011;7222;57.346;12.150;2023-02-15T07:16:57;40.70;;;23.53;;
14276;SDS011;7222;57.346;12.150;2023-02-15T07:19:24;42.97;;;22.80;;
14276;SDS011;7222;57.346;12.150;2023-02-15T07:21:51;42.10;;;24.10;;
14276;SDS011;7222;57.346;12.150;2023-02-15T07:24:18;37.50;;;19.90;;
14276;SDS011;7222;57.346;12.150;2023-02-15T07:26:45;39.97;;;22.67;;
14276;SDS011;7222;57.346;12.150;2023-02-15T07:29:13;39.33;;;23.17;;
14276;SDS011;7222;57.346;12.150;2023-02-15T07:31:40;37.00;;;21.97;;
14276;SDS011;7222;57.346;12.150;2023-02-15T07:34:10;38.87;;;20.97;;
14276;SDS011;7222;57.346;12.150;2023-02-15T07:36:37;33.93;;;18.70;;
14276;SDS011;7222;57.346;12.150;2023-02-15T07:39:04;33.93;;;18.03;;
14276;SDS011;7222;57.346;12.150;2023-02-15T07:41:31;36.73;;;19.20;;
14276;SDS011;7222;57.346;12.150;2023-02-15T07:43:58;36.63;;;17.33;;
14276;SDS011;7222;57.346;12.150;2023-02-15T07:46:26;34.57;;;18.37;;
14276;SDS011;7222;57.346;12.150;2023-02-15T07:48:53;36.87;;;20.17;;
14276;SDS011;7222;57.346;12.150;2023-02-15T07:51:20;37.20;;;21.27;;
14276;SDS011;7222;57.346;12.150;2023-02-15T07:53:47;40.07;;;21.33;;
14276;SDS011;7222;57.346;12.150;2023-02-15T07:56:16;35.63;;;19.00;;
14276;SDS011;7222;57.346;12.150;2023-02-15T07:58:43;36.57;;;17.70;;
14276;SDS011;7222;57.346;12.150;2023-02-15T08:01:22;33.40;;;18.90;;
14276;SDS011;7222;57.346;12.150;2023-02-15T08:03:52;37.17;;;20.13;;
14276;SDS011;7222;57.346;12.150;2023-02-15T08:06:20;36.10;;;19.33;;
14276;SDS011;7222;57.346;12.150;2023-02-15T08:08:48;38.50;;;20.47;;
14276;SDS011;7222;57.346;12.150;2023-02-15T08:11:16;42.07;;;23.43;;
14276;SDS011;7222;57.346;12.150;2023-02-15T08:14:02;38.40;;;18.87;;
14276;SDS011;7222;57.346;12.150;2023-02-15T08:16:31;40.03;;;20.17;;
14276;SDS011;7222;57.346;12.150;2023-02-15T08:19:01;38.70;;;21.23;;
14276;SDS011;7222;57.346;12.150;2023-02-15T08:21:29;39.73;;;22.97;;
14276;SDS011;7222;57.346;12.150;2023-02-15T08:23:57;35.47;;;19.43;;
14276;SDS011;7222;57.346;12.150;2023-02-15T08:26:25;41.93;;;22.07;;
14276;SDS011;7222;57.346;12.150;2023-02-15T08:28:53;36.63;;;21.30;;
14276;SDS011;7222;57.346;12.150;2023-02-15T08:31:20;37.43;;;21.00;;
14276;SDS011;7222;57.346;12.150;2023-02-15T08:33:48;37.90;;;21.37;;
14276;SDS011;7222;57.346;12.150;2023-02-15T08:36:19;37.93;;;22.80;;
14276;SDS011;7222;57.346;12.150;2023-02-15T08:38:47;37.50;;;26.17;;
14276;SDS011;7222;57.346;12.150;2023-02-15T08:41:15;34.00;;;18.90;;
14276;SDS011;7222;57.346;12.150;2023-02-15T08:43:44;39.43;;;22.10;;
14276;SDS011;7222;57.346;12.150;2023-02-15T08:46:13;39.63;;;21.63;;
14276;SDS011;7222;57.346;12.150;2023-02-15T08:48:40;38.53;;;21.10;;
14276;SDS011;7222;57.346;12.150;2023-02-15T08:51:08;34.87;;;19.67;;
14276;SDS011;7222;57.346;12.150;2023-02-15T08:53:38;33.57;;;20.20;;
14276;SDS011;7222;57.346;12.150;2023-02-15T08:56:07;35.63;;;20.40;;
14276;SDS011;7222;57.346;12.150;2023-02-15T08:58:34;33.47;;;20.10;;
14276;SDS011;7222;57.346;12.150;2023-02-15T09:01:07;39.23;;;22.37;;
14276;SDS011;7222;57.346;12.150;2023-02-15T09:03:34;37.60;;;21.50;;
14276;SDS011;7222;57.346;12.150;2023-02-15T09:06:02;39.63;;;21.57;;
14276;SDS011;7222;57.346;12.150;2023-02-15T09:08:29;38.70;;;20.13;;
14276;SDS011;7222;57.346;12.150;2023-02-15T09:11:05;38.03;;;21.37;;
14276;SDS011;7222;57.346;12.150;2023-02-15T09:13:33;41.03;;;23.00;;
14276;SDS011;7222;57.346;12.150;2023-02-15T09:16:01;43.23;;;23.17;;
14276;SDS011;7222;57.346;12.150;2023-02-15T09:18:29;40.30;;;22.97;;
14276;SDS011;7222;57.346;12.150;2023-02-15T09:20:57;38.87;;;20.90;;
14276;SDS011;7222;57.346;12.150;2023-02-15T09:23:29;37.70;;;21.63;;
14276;SDS011;7222;57.346;12.150;2023-02-15T09:25:56;38.93;;;21.37;;
14276;SDS011;7222;57.346;12.150;2023-02-15T09:28:24;35.83;;;19.27;;
14276;SDS011;7222;57.346;12.150;2023-02-15T09:30:51;36.83;;;22.33;;
14276;SDS011;7222;57.346;12.150;2023-02-15T09:33:19;37.77;;;19.87;;
14276;SDS011;7222;57.346;12.150;2023-02-15T09:35:47;37.33;;;19.80;;
14276;SDS011;7222;57.346;12.150;2023-02-15T09:38:13;34.87;;;18.90;;
14276;SDS011;7222;57.346;12.150;2023-02-15T09:40:42;38.90;;;22.00;;
14276;SDS011;7222;57.346;12.150;2023-02-15T09:43:26;42.47;;;20.97;;
14276;SDS011;7222;57.346;12.150;2023-02-15T09:46:07;38.00;;;21.13;;
14276;SDS011;7222;57.346;12.150;2023-02-15T09:48:44;39.70;;;21.43;;
14276;SDS011;7222;57.346;12.150;2023-02-15T09:51:27;42.33;;;24.53;;
14276;SDS011;7222;57.346;12.150;2023-02-15T09:54:24;43.73;;;24.07;;
14276;SDS011;7222;57.346;12.150;2023-02-15T09:57:03;46.67;;;25.23;;
14276;SDS011;7222;57.346;12.150;2023-02-15T09:59:40;43.43;;;23.17;;
14276;SDS011;7222;57.346;12.150;2023-02-15T10:02:18;45.80;;;27.40;;
14276;SDS011;7222;57.346;12.150;2023-02-15T10:04:59;45.40;;;24.00;;
14276;SDS011;7222;57.346;12.150;2023-02-15T10:07:38;46.87;;;27.13;;
14276;SDS011;7222;57.346;12.150;2023-02-15T10:10:22;45.63;;;30.00;;
14276;SDS011;7222;57.346;12.150;2023-02-15T10:13:08;43.57;;;24.43;;
14276;SDS011;7222;57.346;12.150;2023-02-15T10:15:55;46.17;;;24.07;;
14276;SDS011;7222;57.346;12.150;2023-02-15T10:18:33;41.60;;;22.60;;
14276;SDS011;7222;57.346;12.150;2023-02-15T10:21:15;47.13;;;24.93;;
14276;SDS011;7222;57.346;12.150;2023-02-15T10:23:53;46.43;;;27.90;;
14276;SDS011;7222;57.346;12.150;2023-02-15T10:26:31;44.30;;;24.80;;
14276;SDS011;7222;57.346;12.150;2023-02-15T10:29:05;43.80;;;24.60;;
14276;SDS011;7222;57.346;12.150;2023-02-15T10:31:39;44.83;;;23.33;;
14276;SDS011;7222;57.346;12.150;2023-02-15T10:34:17;49.93;;;25.20;;
14276;SDS011;7222;57.346;12.150;2023-02-15T10:36:51;45.00;;;23.00;;
14276;SDS011;7222;57.346;12.150;2023-02-15T10:39:32;43.23;;;23.53;;
14276;SDS011;7222;57.346;12.150;2023-02-15T10:42:09;44.37;;;22.60;;
14276;SDS011;7222;57.346;12.150;2023-02-15T10:44:47;48.67;;;24.43;;
14276;SDS011;7222;57.346;12.150;2023-02-15T10:50:17;48.37;;;27.10;;
14276;SDS011;7222;57.346;12.150;2023-02-15T10:52:59;43.60;;;24.90;;
14276;SDS011;7222;57.346;12.150;2023-02-15T10:55:43;43.17;;;25.27;;
14276;SDS011;7222;57.346;12.150;2023-02-15T10:58:17;39.57;;;20.77;;
14276;SDS011;7222;57.346;12.150;2023-02-15T11:00:54;38.53;;;22.57;;
14276;SDS011;7222;57.346;12.150;2023-02-15T11:03:35;38.03;;;20.70;;
14276;SDS011;7222;57.346;12.150;2023-02-15T11:06:13;41.27;;;22.67;;
14276;SDS011;7222;57.346;12.150;2023-02-15T11:08:43;43.57;;;23.47;;
14276;SDS011;7222;57.346;12.150;2023-02-15T11:11:15;39.93;;;24.73;;
14276;SDS011;7222;57.346;12.150;2023-02-15T11:13:48;40.90;;;23.00;;
14276;SDS011;7222;57.346;12.150;2023-02-15T11:16:20;40.03;;;22.40;;
14276;SDS011;7222;57.346;12.150;2023-02-15T11:18:53;36.27;;;20.23;;
14276;SDS011;7222;57.346;12.150;2023-02-15T11:21:26;39.13;;;22.97;;
14276;SDS011;7222;57.346;12.150;2023-02-15T11:23:55;40.83;;;24.67;;
14276;SDS011;7222;57.346;12.150;2023-02-15T11:26:24;40.87;;;21.53;;
14276;SDS011;7222;57.346;12.150;2023-02-15T11:28:56;43.43;;;25.70;;
14276;SDS011;7222;57.346;12.150;2023-02-15T11:31:26;41.63;;;22.27;;
14276;SDS011;7222;57.346;12.150;2023-02-15T11:34:12;44.27;;;25.30;;
14276;SDS011;7222;57.346;12.150;2023-02-15T11:36:45;43.07;;;25.00;;
14276;SDS011;7222;57.346;12.150;2023-02-15T11:39:15;51.43;;;30.30;;
14276;SDS011;7222;57.346;12.150;2023-02-15T11:41:46;45.93;;;25.73;;
14276;SDS011;7222;57.346;12.150;2023-02-15T11:44:17;48.37;;;26.17;;
14276;SDS011;7222;57.346;12.150;2023-02-15T11:46:48;48.23;;;24.83;;
14276;SDS011;7222;57.346;12.150;2023-02-15T11:49:21;41.57;;;21.93;;
14276;SDS011;7222;57.346;12.150;2023-02-15T11:51:52;50.57;;;26.60;;
14276;SDS011;7222;57.346;12.150;2023-02-15T11:54:21;45.67;;;22.37;;
14276;SDS011;7222;57.346;12.150;2023-02-15T11:56:53;38.03;;;21.43;;
14276;SDS011;7222;57.346;12.150;2023-02-15T11:59:24;46.00;;;24.93;;
14276;SDS011;7222;57.346;12.150;2023-02-15T12:01:55;47.33;;;26.03;;
14276;SDS011;7222;57.346;12.150;2023-02-15T12:04:24;43.97;;;24.40;;
14276;SDS011;7222;57.346;12.150;2023-02-15T12:06:53;44.57;;;21.50;;
14276;SDS011;7222;57.346;12.150;2023-02-15T12:09:27;44.23;;;22.93;;
14276;SDS011;7222;57.346;12.150;2023-02-15T12:14:47;44.27;;;25.00;;
14276;SDS011;7222;57.346;12.150;2023-02-15T12:17:15;43.23;;;22.40;;
14276;SDS011;7222;57.346;12.150;2023-02-15T12:19:44;44.63;;;24.03;;
14276;SDS011;7222;57.346;12.150;2023-02-15T12:22:18;42.13;;;23.77;;
14276;SDS011;7222;57.346;12.150;2023-02-15T12:24:49;37.70;;;19.20;;
14276;SDS011;7222;57.346;12.150;2023-02-15T12:27:19;39.60;;;21.53;;
14276;SDS011;7222;57.346;12.150;2023-02-15T12:29:49;41.20;;;22.70;;
14276;SDS011;7222;57.346;12.150;2023-02-15T12:32:18;42.53;;;23.80;;
14276;SDS011;7222;57.346;12.150;2023-02-15T12:34:50;40.07;;;22.10;;
14276;SDS011;7222;57.346;12.150;2023-02-15T12:37:22;42.70;;;21.97;;
14276;SDS011;7222;57.346;12.150;2023-02-15T12:39:52;43.53;;;21.17;;
14276;SDS011;7222;57.346;12.150;2023-02-15T12:42:21;42.00;;;19.63;;
14276;SDS011;7222;57.346;12.150;2023-02-15T12:44:56;44.17;;;24.00;;
14276;SDS011;7222;57.346;12.150;2023-02-15T12:47:27;41.83;;;21.50;;
14276;SDS011;7222;57.346;12.150;2023-02-15T12:50:05;45.53;;;23.23;;
14276;SDS011;7222;57.346;12.150;2023-02-15T12:52:41;40.37;;;22.00;;
14276;SDS011;7222;57.346;12.150;2023-02-15T12:55:09;38.93;;;22.63;;
14276;SDS011;7222;57.346;12.150;2023-02-15T12:57:43;44.23;;;24.57;;
14276;SDS011;7222;57.346;12.150;2023-02-15T13:00:24;47.20;;;22.97;;
14276;SDS011;7222;57.346;12.150;2023-02-15T13:02:54;38.70;;;20.77;;
14276;SDS011;7222;57.346;12.150;2023-02-15T13:05:25;45.70;;;22.50;;
14276;SDS011;7222;57.346;12.150;2023-02-15T13:07:57;48.07;;;25.87;;
14276;SDS011;7222;57.346;12.150;2023-02-15T13:10:27;47.47;;;26.50;;
14276;SDS011;7222;57.346;12.150;2023-02-15T13:12:56;44.07;;;21.63;;
14276;SDS011;7222;57.346;12.150;2023-02-15T13:15:24;50.73;;;28.40;;
14276;SDS011;7222;57.346;12.150;2023-02-15T13:17:58;48.30;;;24.57;;
14276;SDS011;7222;57.346;12.150;2023-02-15T13:20:28;44.47;;;21.73;;
14276;SDS011;7222;57.346;12.150;2023-02-15T13:22:57;50.17;;;24.80;;
14276;SDS011;7222;57.346;12.150;2023-02-15T13:25:30;49.43;;;23.97;;
14276;SDS011;7222;57.346;12.150;2023-02-15T13:28:05;47.20;;;22.90;;
14276;SDS011;7222;57.346;12.150;2023-02-15T13:30:38;47.43;;;23.50;;
14276;SDS011;7222;57.346;12.150;2023-02-15T13:33:10;52.07;;;26.03;;
14276;SDS011;7222;57.346;12.150;2023-02-15T13:35:46;42.83;;;21.00;;
14276;SDS011;7222;57.346;12.150;2023-02-15T13:38:25;45.13;;;21.93;;
14276;SDS011;7222;57.346;12.150;2023-02-15T13:41:11;41.87;;;19.90;;
14276;SDS011;7222;57.346;12.150;2023-02-15T13:43:43;44.10;;;22.50;;
14276;SDS011;7222;57.346;12.150;2023-02-15T13:46:18;47.10;;;22.30;;
14276;SDS011;7222;57.346;12.150;2023-02-15T13:48:58;53.73;;;25.83;;
14276;SDS011;7222;57.346;12.150;2023-02-15T13:51:37;43.73;;;23.63;;
14276;SDS011;7222;57.346;12.150;2023-02-15T13:54:19;46.67;;;22.43;;
14276;SDS011;7222;57.346;12.150;2023-02-15T13:57:00;43.23;;;21.73;;
14276;SDS011;7222;57.346;12.150;2023-02-15T13:59:47;43.63;;;20.90;;
14276;SDS011;7222;57.346;12.150;2023-02-15T14:02:44;42.40;;;20.00;;
14276;SDS011;7222;57.346;12.150;2023-02-15T14:05:37;52.13;;;24.10;;
14276;SDS011;7222;57.346;12.150;2023-02-15T14:08:20;49.10;;;23.00;;
14276;SDS011;7222;57.346;12.150;2023-02-15T14:11:01;45.97;;;20.10;;
14276;SDS011;7222;57.346;12.150;2023-02-15T14:13:46;37.97;;;19.37;;
14276;SDS011;7222;57.346;12.150;2023-02-15T14:16:25;48.27;;;23.40;;
14276;SDS011;7222;57.346;12.150;2023-02-15T14:19:01;41.67;;;19.73;;
14276;SDS011;7222;57.346;12.150;2023-02-15T14:21:39;45.77;;;19.93;;
14276;SDS011;7222;57.346;12.150;2023-02-15T14:24:17;42.50;;;19.60;;
14276;SDS011;7222;57.346;12.150;2023-02-15T14:26:54;39.83;;;19.30;;
14276;SDS011;7222;57.346;12.150;2023-02-15T14:29:29;38.33;;;18.57;;
14276;SDS011;7222;57.346;12.150;2023-02-15T14:32:08;40.50;;;19.00;;
14276;SDS011;7222;57.346;12.150;2023-02-15T14:34:40;41.30;;;19.40;;
14276;SDS011;7222;57.346;12.150;2023-02-15T14:37:13;37.30;;;18.60;;
14276;SDS011;7222;57.346;12.150;2023-02-15T14:39:44;42.80;;;19.20;;
14276;SDS011;7222;57.346;12.150;2023-02-15T14:42:39;49.73;;;21.23;;
14276;SDS011;7222;57.346;12.150;2023-02-15T14:45:17;40.60;;;18.33;;
14276;SDS011;7222;57.346;12.150;2023-02-15T14:47:51;51.87;;;23.93;;
14276;SDS011;7222;57.346;12.150;2023-02-15T14:50:40;40.33;;;18.47;;
14276;SDS011;7222;57.346;12.150;2023-02-15T14:53:18;43.33;;;20.60;;
14276;SDS011;7222;57.346;12.150;2023-02-15T14:56:15;44.23;;;18.90;;
14276;SDS011;7222;57.346;12.150;2023-02-15T15:01:42;38.30;;;18.33;;